createdAt,value
2022-11-06T00:00:45.875Z,12.60
2022-11-06T00:03:14.301Z,12.70
2022-11-06T00:06:01.976Z,12.50
2022-11-06T00:08:32.793Z,12.40
2022-11-06T00:11:01.382Z,12.60
2022-11-06T00:13:32.610Z,12.30
2022-11-06T00:16:04.095Z,12.20
2022-11-06T00:18:32.670Z,12.20
2022-11-06T00:21:06.576Z,12.20
2022-11-06T00:23:34.943Z,12.10
2022-11-06T00:26:06.914Z,12.10
2022-11-06T00:28:37.060Z,12.10
2022-11-06T00:31:06.595Z,12.30
2022-11-06T00:33:35.524Z,12.40
2022-11-06T00:36:04.815Z,12.20
2022-11-06T00:38:34.062Z,12.10
2022-11-06T00:41:04.430Z,12.20
2022-11-06T00:43:33.923Z,12.00
2022-11-06T00:46:05.044Z,11.80
2022-11-06T00:48:33.597Z,11.90
2022-11-06T00:51:03.879Z,11.90
2022-11-06T00:53:32.390Z,12.00
2022-11-06T00:56:06.404Z,12.10
2022-11-06T00:58:35.379Z,11.90
2022-11-06T01:01:12.768Z,11.90
2022-11-06T01:03:42.221Z,11.90
2022-11-06T01:06:12.720Z,11.70
2022-11-06T01:08:43.686Z,11.60
2022-11-06T01:11:15.662Z,11.50
2022-11-06T01:13:45.184Z,11.50
2022-11-06T01:16:16.403Z,11.50
2022-11-06T01:18:45.513Z,11.60
2022-11-06T01:21:15.529Z,11.60
2022-11-06T01:23:44.364Z,11.70
2022-11-06T01:26:14.674Z,11.70
2022-11-06T01:28:43.396Z,11.60
2022-11-06T01:31:16.017Z,11.60
2022-11-06T01:33:44.735Z,11.50
2022-11-06T01:36:14.463Z,11.40
2022-11-06T01:38:43.785Z,11.60
2022-11-06T01:41:13.664Z,11.40
2022-11-06T01:43:47.482Z,11.40
2022-11-06T01:46:18.235Z,11.70
2022-11-06T01:48:51.110Z,11.70
2022-11-06T01:51:39.401Z,11.80
2022-11-06T01:54:09.451Z,11.70
2022-11-06T01:56:39.341Z,11.70
2022-11-06T01:59:10.161Z,11.50
2022-11-06T02:01:40.196Z,11.60
2022-11-06T02:04:18.666Z,11.50
2022-11-06T02:06:49.527Z,11.30
2022-11-06T02:09:19.283Z,11.40
2022-11-06T02:12:01.115Z,11.50
2022-11-06T02:14:35.111Z,11.50
2022-11-06T02:17:12.042Z,11.40
2022-11-06T02:19:54.827Z,11.10
2022-11-06T02:22:38.368Z,10.80
2022-11-06T02:25:21.665Z,10.90
2022-11-06T02:27:57.622Z,11.00
2022-11-06T02:30:26.018Z,11.00
2022-11-06T02:32:57.855Z,11.00
2022-11-06T02:35:31.857Z,11.00
2022-11-06T02:38:04.952Z,11.00
2022-11-06T02:40:37.416Z,11.10
2022-11-06T02:43:09.344Z,10.90
2022-11-06T02:45:53.832Z,10.70
2022-11-06T02:48:27.081Z,10.90
2022-11-06T02:50:57.665Z,11.10
2022-11-06T02:53:27.991Z,11.10
2022-11-06T02:56:02.983Z,11.10
2022-11-06T02:58:39.075Z,11.20
2022-11-06T03:01:16.329Z,11.20
2022-11-06T03:03:49.432Z,11.10
2022-11-06T03:06:24.644Z,11.00
2022-11-06T03:08:57.510Z,10.90
2022-11-06T03:11:27.825Z,11.00
2022-11-06T03:14:00.576Z,11.10
2022-11-06T03:16:34.307Z,10.90
2022-11-06T03:19:07.675Z,10.80
2022-11-06T03:21:43.725Z,10.90
2022-11-06T03:24:16.606Z,10.90
2022-11-06T03:26:48.996Z,10.80
2022-11-06T03:29:22.576Z,10.60
2022-11-06T03:31:54.045Z,10.40
2022-11-06T03:34:29.887Z,10.50
2022-11-06T03:37:04.247Z,10.60
2022-11-06T03:39:36.727Z,10.70
2022-11-06T03:42:06.936Z,10.70
2022-11-06T03:44:41.148Z,10.70
2022-11-06T03:47:13.105Z,10.60
2022-11-06T03:49:50.606Z,10.80
2022-11-06T03:52:24.794Z,10.80
2022-11-06T03:54:56.450Z,10.60
2022-11-06T03:57:28.669Z,10.50
2022-11-06T04:00:01.474Z,10.50
2022-11-06T04:02:45.095Z,10.50
2022-11-06T04:05:17.086Z,10.70
2022-11-06T04:08:08.454Z,10.70
2022-11-06T04:10:56.699Z,10.60
2022-11-06T04:13:44.716Z,10.60
2022-11-06T04:16:15.308Z,10.70
2022-11-06T04:18:43.177Z,10.60
2022-11-06T04:21:23.097Z,10.40
2022-11-06T04:24:23.906Z,10.30
2022-11-06T04:27:08.737Z,10.50
2022-11-06T04:29:48.837Z,10.30
2022-11-06T04:32:27.546Z,10.30
2022-11-06T04:35:03.537Z,10.30
2022-11-06T04:37:36.985Z,10.20
2022-11-06T04:40:10.798Z,10.10
2022-11-06T04:42:46.257Z,10.20
2022-11-06T04:45:18.746Z,10.10
2022-11-06T04:47:50.017Z,10.00
2022-11-06T04:50:21.158Z,9.90
2022-11-06T04:52:49.717Z,10.00
2022-11-06T04:55:18.677Z,10.20
2022-11-06T04:57:46.558Z,9.90
2022-11-06T05:00:16.858Z,9.90
2022-11-06T05:02:44.878Z,10.00
2022-11-06T05:05:14.246Z,10.00
2022-11-06T05:07:42.181Z,10.00
2022-11-06T05:10:10.636Z,10.10
2022-11-06T05:12:38.597Z,10.30
2022-11-06T05:15:07.668Z,10.40
2022-11-06T05:17:36.744Z,10.30
2022-11-06T05:20:05.809Z,10.30
2022-11-06T05:22:53.519Z,10.30
2022-11-06T05:25:21.458Z,10.30
2022-11-06T05:28:09.490Z,10.10
2022-11-06T05:30:37.906Z,9.70
2022-11-06T05:33:05.755Z,9.60
2022-11-06T05:35:33.687Z,9.90
2022-11-06T05:38:03.931Z,10.00
2022-11-06T05:40:32.048Z,9.90
2022-11-06T05:42:59.974Z,9.70
2022-11-06T05:45:27.884Z,9.70
2022-11-06T05:47:55.814Z,9.90
2022-11-06T05:50:23.755Z,9.90
2022-11-06T05:52:51.564Z,9.90
2022-11-06T05:55:21.124Z,10.00
2022-11-06T05:57:49.008Z,10.10
2022-11-06T06:00:17.255Z,10.10
2022-11-06T06:02:45.156Z,10.10
2022-11-06T06:05:13.385Z,10.10
2022-11-06T06:07:41.147Z,9.90
2022-11-06T06:10:09.626Z,9.80
2022-11-06T06:12:41.674Z,9.70
2022-11-06T06:15:10.577Z,9.90
2022-11-06T06:17:38.405Z,10.00
2022-11-06T06:20:07.807Z,9.70
2022-11-06T06:22:35.569Z,9.70
2022-11-06T06:25:04.055Z,9.90
2022-11-06T06:27:32.069Z,9.90
2022-11-06T06:30:01.425Z,9.90
2022-11-06T06:32:29.186Z,9.80
2022-11-06T06:34:57.175Z,9.90
2022-11-06T06:37:24.924Z,9.90
2022-11-06T06:39:52.730Z,9.80
2022-11-06T06:42:20.597Z,9.90
2022-11-06T06:44:48.695Z,9.70
2022-11-06T06:47:18.344Z,9.60
2022-11-06T06:49:46.324Z,9.70
2022-11-06T06:52:14.086Z,9.80
2022-11-06T06:54:42.018Z,9.80
2022-11-06T06:57:10.366Z,10.00
2022-11-06T06:59:38.386Z,10.10
2022-11-06T07:02:06.284Z,10.10
2022-11-06T07:04:35.762Z,10.10
2022-11-06T07:07:03.634Z,10.10
2022-11-06T07:09:33.052Z,10.20
2022-11-06T07:12:01.031Z,10.30
2022-11-06T07:14:29.031Z,10.40
2022-11-06T07:16:56.850Z,10.50
2022-11-06T07:19:24.851Z,10.50
2022-11-06T07:21:54.610Z,10.50
2022-11-06T07:24:22.671Z,10.60
2022-11-06T07:26:50.699Z,10.70
2022-11-06T07:29:18.709Z,10.70
2022-11-06T07:31:46.589Z,10.70
2022-11-06T07:34:14.802Z,10.70
2022-11-06T07:36:42.699Z,10.80
2022-11-06T07:39:12.310Z,10.90
2022-11-06T07:41:40.339Z,10.90
2022-11-06T07:44:08.331Z,11.00
2022-11-06T07:46:36.213Z,11.10
2022-11-06T07:49:04.311Z,11.30
2022-11-06T07:51:33.341Z,11.30
2022-11-06T07:54:01.384Z,11.30
2022-11-06T07:56:30.822Z,11.40
2022-11-06T07:58:58.964Z,11.40
2022-11-06T08:01:26.859Z,11.30
2022-11-06T08:03:55.071Z,11.30
2022-11-06T08:06:23.093Z,11.40
2022-11-06T08:08:56.117Z,11.60
2022-11-06T08:11:27.999Z,11.60
2022-11-06T08:13:59.860Z,11.70
2022-11-06T08:16:28.281Z,11.70
2022-11-06T08:18:56.450Z,11.80
2022-11-06T08:21:24.456Z,11.90
2022-11-06T08:23:52.352Z,11.90
2022-11-06T08:26:20.742Z,11.70
2022-11-06T08:28:49.021Z,11.60
2022-11-06T08:31:21.401Z,11.60
2022-11-06T08:33:49.666Z,11.70
2022-11-06T08:36:18.020Z,11.70
2022-11-06T08:38:48.202Z,11.80
2022-11-06T08:41:16.441Z,11.80
2022-11-06T08:43:44.313Z,11.90
2022-11-06T08:46:12.606Z,12.10
2022-11-06T08:48:41.919Z,12.20
2022-11-06T08:51:09.798Z,12.40
2022-11-06T08:53:37.926Z,12.50
2022-11-06T08:56:06.907Z,12.60
2022-11-06T08:58:34.776Z,12.80
2022-11-06T09:01:02.805Z,12.90
2022-11-06T09:03:30.609Z,13.10
2022-11-06T09:06:13.361Z,13.10
2022-11-06T09:08:42.580Z,13.10
2022-11-06T09:11:12.310Z,13.20
2022-11-06T09:13:40.548Z,13.30
2022-11-06T09:16:14.371Z,13.40
2022-11-06T09:18:43.910Z,13.60
2022-11-06T09:21:13.420Z,13.70
2022-11-06T09:23:41.493Z,13.90
2022-11-06T09:26:09.419Z,13.90
2022-11-06T09:28:37.400Z,14.00
2022-11-06T09:31:05.628Z,14.10
2022-11-06T09:33:33.891Z,14.30
2022-11-06T09:36:05.231Z,14.40
2022-11-06T09:38:34.848Z,14.40
2022-11-06T09:41:03.591Z,14.60
2022-11-06T09:46:36.304Z,14.90
2022-11-06T09:49:17.311Z,15.10
2022-11-06T09:51:52.771Z,15.30
2022-11-06T09:54:26.769Z,15.40
2022-11-06T09:57:02.761Z,15.50
2022-11-06T09:59:36.288Z,15.60
2022-11-06T10:02:20.837Z,15.70
2022-11-06T10:04:54.999Z,15.90
2022-11-06T10:07:28.069Z,15.90
2022-11-06T10:09:57.898Z,16.00
2022-11-06T10:12:35.531Z,16.10
2022-11-06T10:15:17.032Z,16.20
2022-11-06T10:17:55.098Z,16.30
2022-11-06T10:20:30.617Z,16.40
2022-11-06T10:23:04.943Z,16.50
2022-11-06T10:25:53.844Z,16.60
2022-11-06T10:28:56.244Z,16.70
2022-11-06T10:31:30.857Z,16.80
2022-11-06T10:34:02.799Z,17.10
2022-11-06T10:36:36.133Z,17.20
2022-11-06T10:39:10.782Z,17.30
2022-11-06T10:41:41.784Z,17.40
2022-11-06T10:44:17.593Z,17.40
2022-11-06T10:46:51.553Z,17.50
2022-11-06T10:49:26.644Z,17.60
2022-11-06T10:52:16.124Z,17.70
2022-11-06T10:54:57.152Z,17.70
2022-11-06T10:57:36.092Z,17.80
2022-11-06T11:00:05.062Z,17.90
2022-11-06T11:02:36.310Z,18.20
2022-11-06T11:05:13.422Z,18.20
2022-11-06T11:07:43.322Z,18.30
2022-11-06T11:10:28.211Z,18.50
2022-11-06T11:13:04.098Z,18.70
2022-11-06T11:15:44.229Z,18.80
2022-11-06T11:18:23.075Z,18.90
2022-11-06T11:21:04.851Z,18.80
2022-11-06T11:23:33.424Z,18.90
2022-11-06T11:26:24.605Z,19.10
2022-11-06T11:28:57.746Z,19.00
2022-11-06T11:31:31.978Z,19.10
2022-11-06T11:34:02.668Z,19.10
2022-11-06T11:36:49.680Z,19.10
2022-11-06T11:39:20.214Z,19.10
2022-11-06T11:41:48.609Z,19.30
2022-11-06T11:44:19.700Z,19.30
2022-11-06T11:46:50.231Z,19.40
2022-11-06T11:49:28.400Z,19.30
2022-11-06T11:51:58.921Z,19.30
2022-11-06T11:54:30.953Z,19.30
2022-11-06T11:57:05.329Z,19.20
2022-11-06T11:59:43.947Z,19.30
2022-11-06T12:02:26.466Z,19.30
2022-11-06T12:04:58.913Z,19.30
2022-11-06T12:07:30.505Z,19.40
2022-11-06T12:10:00.314Z,19.60
2022-11-06T12:12:32.592Z,19.90
2022-11-06T12:15:19.951Z,20.10
2022-11-06T12:17:53.650Z,20.20
2022-11-06T12:20:26.289Z,20.30
2022-11-06T12:22:57.171Z,20.30
2022-11-06T12:25:31.616Z,20.40
2022-11-06T12:28:02.409Z,20.50
2022-11-06T12:30:34.545Z,20.60
2022-11-06T12:33:10.864Z,20.60
2022-11-06T12:35:43.262Z,20.60
2022-11-06T12:38:24.947Z,20.60
2022-11-06T12:41:00.492Z,20.70
2022-11-06T12:43:38.093Z,20.80
2022-11-06T12:46:35.367Z,20.90
2022-11-06T12:49:26.374Z,20.80
2022-11-06T12:52:09.143Z,20.50
2022-11-06T12:54:55.070Z,20.60
2022-11-06T12:57:35.432Z,20.60
2022-11-06T13:00:09.918Z,20.70
2022-11-06T13:03:19.725Z,20.70
2022-11-06T13:05:56.067Z,20.80
2022-11-06T13:08:34.537Z,20.80
2022-11-06T13:11:22.993Z,20.70
2022-11-06T13:14:04.115Z,20.60
2022-11-06T13:16:40.034Z,20.60
2022-11-06T13:19:16.107Z,20.60
2022-11-06T13:22:08.205Z,20.60
2022-11-06T13:24:42.026Z,20.60
2022-11-06T13:27:19.700Z,20.70
2022-11-06T13:29:48.787Z,20.80
2022-11-06T13:32:19.640Z,21.00
2022-11-06T13:34:53.150Z,21.10
2022-11-06T13:37:31.395Z,21.10
2022-11-06T13:40:06.846Z,21.20
2022-11-06T13:42:38.768Z,21.30
2022-11-06T13:45:09.915Z,21.40
2022-11-06T13:47:49.982Z,21.40
2022-11-06T13:50:29.088Z,21.30
2022-11-06T13:53:02.412Z,21.40
2022-11-06T13:55:44.216Z,21.30
2022-11-06T13:58:50.663Z,21.10
2022-11-06T14:01:33.742Z,20.90
2022-11-06T14:04:34.594Z,20.70
2022-11-06T14:07:06.639Z,20.50
2022-11-06T14:09:37.503Z,20.40
2022-11-06T14:12:15.406Z,20.40
2022-11-06T14:14:43.924Z,20.30
2022-11-06T14:17:14.744Z,20.20
2022-11-06T14:20:00.085Z,20.20
2022-11-06T14:22:32.444Z,20.20
2022-11-06T14:25:02.474Z,20.20
2022-11-06T14:28:06.957Z,20.20
2022-11-06T14:31:11.175Z,20.20
2022-11-06T14:34:01.264Z,20.20
2022-11-06T14:36:33.507Z,20.10
2022-11-06T14:39:04.531Z,20.10
2022-11-06T14:42:05.159Z,20.20
2022-11-06T14:44:51.778Z,20.10
2022-11-06T14:47:32.936Z,20.00
2022-11-06T14:50:05.573Z,19.90
2022-11-06T14:52:44.757Z,19.90
2022-11-06T14:55:28.041Z,19.90
2022-11-06T14:57:59.477Z,19.80
2022-11-06T15:00:44.128Z,19.80
2022-11-06T15:03:22.553Z,19.60
2022-11-06T15:05:52.878Z,19.70
2022-11-06T15:08:56.867Z,19.90
2022-11-06T15:11:58.171Z,20.80
2022-11-06T15:14:59.347Z,21.60
2022-11-06T15:17:34.842Z,22.70
2022-11-06T15:20:21.474Z,22.60
2022-11-06T15:23:00.007Z,22.80
2022-11-06T15:25:29.221Z,23.40
2022-11-06T15:28:07.776Z,23.80
2022-11-06T15:30:46.160Z,24.50
2022-11-06T15:33:18.972Z,24.50
2022-11-06T15:35:50.043Z,23.10
2022-11-06T15:38:21.764Z,22.00
2022-11-06T15:40:53.093Z,21.20
2022-11-06T15:43:28.427Z,20.80
2022-11-06T15:46:07.932Z,20.50
2022-11-06T15:48:36.094Z,20.20
2022-11-06T15:51:05.318Z,19.90
2022-11-06T15:53:38.275Z,19.70
2022-11-06T15:56:10.948Z,19.50
2022-11-06T15:58:41.213Z,19.30
2022-11-06T16:01:11.535Z,19.10
2022-11-06T16:03:47.025Z,18.90
2022-11-06T16:06:15.364Z,18.70
2022-11-06T16:08:43.835Z,18.60
2022-11-06T16:11:15.179Z,18.60
2022-11-06T16:13:47.063Z,18.50
2022-11-06T16:16:35.637Z,18.40
2022-11-06T16:19:06.085Z,18.20
2022-11-06T16:21:36.289Z,18.10
2022-11-06T16:24:11.607Z,18.10
2022-11-06T16:26:45.784Z,18.00
2022-11-06T16:29:20.311Z,18.00
2022-11-06T16:31:49.249Z,18.00
2022-11-06T16:34:22.278Z,17.80
2022-11-06T16:36:57.569Z,17.40
2022-11-06T16:39:49.316Z,17.10
2022-11-06T16:42:28.725Z,17.40
2022-11-06T16:45:19.818Z,17.50
2022-11-06T16:48:24.670Z,17.50
2022-11-06T16:50:54.989Z,17.60
2022-11-06T16:53:26.180Z,17.60
2022-11-06T16:55:56.045Z,17.50
2022-11-06T16:58:24.521Z,17.40
2022-11-06T17:01:02.479Z,17.20
2022-11-06T17:03:38.708Z,17.30
2022-11-06T17:06:07.364Z,17.30
2022-11-06T17:08:37.433Z,17.30
2022-11-06T17:11:17.128Z,17.10
2022-11-06T17:13:46.366Z,17.00
2022-11-06T17:16:17.280Z,17.00
2022-11-06T17:18:45.384Z,16.90
2022-11-06T17:21:15.887Z,16.90
2022-11-06T17:23:45.235Z,16.80
2022-11-06T17:26:16.340Z,16.80
2022-11-06T17:28:46.905Z,16.80
2022-11-06T17:31:19.063Z,16.60
2022-11-06T17:33:47.357Z,16.60
2022-11-06T17:36:19.022Z,16.50
2022-11-06T17:38:48.064Z,16.50
2022-11-06T17:41:36.666Z,16.40
2022-11-06T17:44:06.186Z,16.40
2022-11-06T17:46:38.025Z,16.30
2022-11-06T17:49:06.465Z,16.30
2022-11-06T17:51:53.864Z,16.20
2022-11-06T17:54:23.407Z,16.20
2022-11-06T17:56:53.821Z,16.10
2022-11-06T17:59:24.032Z,16.10
2022-11-06T18:01:54.993Z,16.00
2022-11-06T18:04:24.806Z,16.10
2022-11-06T18:06:53.920Z,16.10
2022-11-06T18:09:23.163Z,16.00
2022-11-06T18:11:51.973Z,16.00
2022-11-06T18:14:21.564Z,16.00
2022-11-06T18:16:49.653Z,15.90
2022-11-06T18:19:22.264Z,16.00
2022-11-06T18:21:51.298Z,16.00
2022-11-06T18:24:19.262Z,15.90
2022-11-06T18:26:47.360Z,15.90
2022-11-06T18:29:15.390Z,15.80
2022-11-06T18:31:43.397Z,15.70
2022-11-06T18:34:19.452Z,15.70
2022-11-06T18:36:50.881Z,15.80
2022-11-06T18:39:24.005Z,15.80
2022-11-06T18:41:51.990Z,15.80
2022-11-06T18:44:20.179Z,15.60
2022-11-06T18:46:48.460Z,15.50
2022-11-06T18:49:16.551Z,15.60
2022-11-06T18:51:44.762Z,15.30
2022-11-06T18:54:14.439Z,15.30
2022-11-06T18:56:42.732Z,15.20
2022-11-06T18:59:15.311Z,15.30
2022-11-06T19:01:43.929Z,15.30
2022-11-06T19:04:12.366Z,15.30
2022-11-06T19:06:40.854Z,15.30
2022-11-06T19:09:09.616Z,15.20
2022-11-06T19:11:40.304Z,15.20
2022-11-06T19:14:08.758Z,15.20
2022-11-06T19:16:36.870Z,15.20
2022-11-06T19:19:06.523Z,15.20
2022-11-06T19:21:35.700Z,15.20
2022-11-06T19:24:05.582Z,15.00
2022-11-06T19:26:35.914Z,14.80
2022-11-06T19:29:07.775Z,14.90
2022-11-06T19:31:37.765Z,14.90
2022-11-06T19:34:08.203Z,14.90
2022-11-06T19:36:36.831Z,14.90
2022-11-06T19:39:05.681Z,14.90
2022-11-06T19:41:34.682Z,14.70
2022-11-06T19:44:02.961Z,14.60
2022-11-06T19:46:35.901Z,14.50
2022-11-06T19:49:05.120Z,14.70
2022-11-06T19:51:33.757Z,14.70
2022-11-06T19:54:02.217Z,14.60
2022-11-06T19:56:30.319Z,14.40
2022-11-06T19:58:58.989Z,14.20
2022-11-06T20:01:27.600Z,14.20
2022-11-06T20:03:57.230Z,14.20
2022-11-06T20:06:27.827Z,14.20
2022-11-06T20:08:56.240Z,14.20
2022-11-06T20:11:25.128Z,14.30
2022-11-06T20:13:53.375Z,14.30
2022-11-06T20:16:22.402Z,14.30
2022-11-06T20:18:54.465Z,14.30
2022-11-06T20:21:26.919Z,14.20
2022-11-06T20:23:55.506Z,14.10
2022-11-06T20:26:23.787Z,14.10
2022-11-06T20:28:52.009Z,14.10
2022-11-06T20:31:20.715Z,14.00
2022-11-06T20:33:49.420Z,14.00
2022-11-06T20:36:19.546Z,14.00
2022-11-06T20:38:49.454Z,13.90
2022-11-06T20:41:18.488Z,13.90
2022-11-06T20:43:47.097Z,13.90
2022-11-06T20:46:16.832Z,13.90
2022-11-06T20:48:45.744Z,13.80
2022-11-06T20:51:15.756Z,13.80
2022-11-06T20:53:44.144Z,13.90
2022-11-06T20:56:18.646Z,13.90
2022-11-06T20:58:47.349Z,13.60
2022-11-06T21:01:18.442Z,13.50
2022-11-06T21:03:48.102Z,13.40
2022-11-06T21:06:16.761Z,13.50
2022-11-06T21:08:45.352Z,13.60
2022-11-06T21:11:17.570Z,13.70
2022-11-06T21:13:47.676Z,13.60
2022-11-06T21:16:17.772Z,13.60
2022-11-06T21:18:46.445Z,13.60
2022-11-06T21:21:17.257Z,13.60
2022-11-06T21:23:45.654Z,13.40
2022-11-06T21:26:17.917Z,13.50
2022-11-06T21:28:46.264Z,13.50
2022-11-06T21:31:16.941Z,13.50
2022-11-06T21:33:46.843Z,13.60
2022-11-06T21:36:17.842Z,13.50
2022-11-06T21:38:46.341Z,13.30
2022-11-06T21:41:17.881Z,13.10
2022-11-06T21:43:48.311Z,13.00
2022-11-06T21:46:17.992Z,13.00
2022-11-06T21:48:47.684Z,13.10
2022-11-06T21:51:18.560Z,13.20
2022-11-06T21:54:05.954Z,13.30
2022-11-06T21:56:36.752Z,13.40
2022-11-06T21:59:06.590Z,13.40
2022-11-06T22:01:34.847Z,13.30
2022-11-06T22:04:03.238Z,13.40
2022-11-06T22:06:31.612Z,13.40
2022-11-06T22:09:01.234Z,13.30
2022-11-06T22:11:31.187Z,13.20
2022-11-06T22:14:02.761Z,13.10
2022-11-06T22:16:32.979Z,13.20
2022-11-06T22:19:01.239Z,13.10
2022-11-06T22:21:30.708Z,12.80
2022-11-06T22:23:58.925Z,12.60
2022-11-06T22:26:29.520Z,12.40
2022-11-06T22:29:00.707Z,12.20
2022-11-06T22:31:29.361Z,12.20
2022-11-06T22:33:58.173Z,12.30
2022-11-06T22:36:27.507Z,12.20
2022-11-06T22:38:55.706Z,12.10
2022-11-06T22:41:24.969Z,12.10
2022-11-06T22:44:12.892Z,12.10
2022-11-06T22:46:41.137Z,12.10
2022-11-06T22:49:12.197Z,12.10
2022-11-06T22:51:40.586Z,11.90
2022-11-06T22:54:10.187Z,11.80
2022-11-06T22:56:38.199Z,11.80
2022-11-06T22:59:09.016Z,11.90
2022-11-06T23:01:42.312Z,11.90
2022-11-06T23:04:15.298Z,11.80
2022-11-06T23:06:44.558Z,11.70
2022-11-06T23:09:12.717Z,11.70
2022-11-06T23:11:40.661Z,11.70
2022-11-06T23:14:09.376Z,11.70
2022-11-06T23:16:57.279Z,11.70
2022-11-06T23:19:25.261Z,11.60
2022-11-06T23:22:12.995Z,11.70
2022-11-06T23:24:40.961Z,11.60
2022-11-06T23:27:09.926Z,11.70
2022-11-06T23:29:38.431Z,11.60
2022-11-06T23:32:25.336Z,11.60
2022-11-06T23:34:53.594Z,11.50
2022-11-06T23:37:21.565Z,11.60
2022-11-06T23:39:49.385Z,11.60
2022-11-06T23:42:17.966Z,11.50
2022-11-06T23:45:05.485Z,11.50
2022-11-06T23:47:35.485Z,11.40
2022-11-06T23:50:04.335Z,11.40
2022-11-06T23:52:32.169Z,11.40
2022-11-06T23:54:59.875Z,11.40
2022-11-06T23:57:27.695Z,11.40
2022-11-06T23:59:55.565Z,11.30
